createdAt,value
2022-08-02T00:00:13.065Z,98365.38
2022-08-02T00:02:39.744Z,98355.06
2022-08-02T00:05:07.189Z,98335.06
2022-08-02T00:07:39.124Z,98350.56
2022-08-02T00:10:12.254Z,98345.53
2022-08-02T00:12:39.472Z,98343.00
2022-08-02T00:15:07.606Z,98351.16
2022-08-02T00:17:35.812Z,98323.59
2022-08-02T00:20:02.478Z,98322.03
2022-08-02T00:22:28.939Z,98325.22
2022-08-02T00:24:55.458Z,98323.50
2022-08-02T00:27:22.133Z,98312.25
2022-08-02T00:29:53.406Z,98338.59
2022-08-02T00:32:20.595Z,98327.91
2022-08-02T00:34:47.085Z,98329.56
2022-08-02T00:37:14.370Z,98330.00
2022-08-02T00:39:42.250Z,98334.03
2022-08-02T00:42:10.020Z,98331.38
2022-08-02T00:44:37.400Z,98337.72
2022-08-02T00:47:06.967Z,98340.31
2022-08-02T00:49:33.494Z,98335.41
2022-08-02T00:52:00.745Z,98339.75
2022-08-02T00:54:27.341Z,98329.59
2022-08-02T00:56:53.742Z,98335.50
2022-08-02T00:59:20.131Z,98308.75
2022-08-02T01:01:57.187Z,98328.31
2022-08-02T01:04:31.010Z,98330.56
2022-08-02T01:07:12.549Z,98344.31
2022-08-02T01:09:41.323Z,98336.06
2022-08-02T01:12:08.271Z,98333.50
2022-08-02T01:14:35.033Z,98308.38
2022-08-02T01:17:28.944Z,98324.72
2022-08-02T01:20:41.536Z,98329.22
2022-08-02T01:23:23.423Z,98323.75
2022-08-02T01:25:58.882Z,98323.03
2022-08-02T01:28:32.260Z,98320.09
2022-08-02T01:31:04.366Z,98315.31
2022-08-02T01:33:39.224Z,98324.59
2022-08-02T01:36:12.575Z,98308.03
2022-08-02T01:38:42.092Z,98322.38
2022-08-02T01:41:10.371Z,98307.16
2022-08-02T01:43:40.100Z,98308.88
2022-08-02T01:46:08.210Z,98291.53
2022-08-02T01:48:35.811Z,98321.53
2022-08-02T01:51:03.206Z,98316.78
2022-08-02T01:53:31.800Z,98320.75
2022-08-02T01:56:00.033Z,98335.06
2022-08-02T01:58:30.971Z,98330.19
2022-08-02T02:00:58.731Z,98326.53
2022-08-02T02:03:27.031Z,98331.25
2022-08-02T02:05:57.430Z,98336.56
2022-08-02T02:08:29.706Z,98323.34
2022-08-02T02:10:57.715Z,98320.78
2022-08-02T02:13:45.411Z,98331.44
2022-08-02T02:16:13.917Z,98341.44
2022-08-02T02:18:43.816Z,98333.63
2022-08-02T02:21:12.412Z,98335.47
2022-08-02T02:23:39.467Z,98325.00
2022-08-02T02:26:10.002Z,98346.84
2022-08-02T02:28:39.279Z,98340.63
2022-08-02T02:31:16.195Z,98339.97
2022-08-02T02:33:55.511Z,98315.72
2022-08-02T02:36:22.851Z,98330.63
2022-08-02T02:38:52.740Z,98330.13
2022-08-02T02:41:21.115Z,98311.38
2022-08-02T02:43:48.718Z,98339.19
2022-08-02T02:46:18.403Z,98307.19
2022-08-02T02:48:45.258Z,98316.44
2022-08-02T02:51:14.347Z,98322.03
2022-08-02T02:54:30.225Z,98323.97
2022-08-02T02:56:30.296Z,98318.84
2022-08-02T02:58:57.568Z,98307.09
2022-08-02T03:01:56.242Z,98325.53
2022-08-02T03:04:22.365Z,98327.72
2022-08-02T03:06:49.104Z,98330.00
2022-08-02T03:09:15.648Z,98333.66
2022-08-02T03:11:42.791Z,98325.38
2022-08-02T03:14:11.440Z,98330.06
2022-08-02T03:16:49.894Z,98340.50
2022-08-02T03:19:17.939Z,98342.22
2022-08-02T03:21:48.681Z,98296.28
2022-08-02T03:24:27.778Z,98339.94
2022-08-02T03:26:55.043Z,98338.28
2022-08-02T03:29:21.447Z,98329.38
2022-08-02T03:31:48.008Z,98315.91
2022-08-02T03:34:14.553Z,98299.88
2022-08-02T03:36:42.160Z,98346.25
2022-08-02T03:39:09.392Z,98335.31
2022-08-02T03:41:38.582Z,98342.31
2022-08-02T03:44:07.548Z,98340.00
2022-08-02T03:46:34.635Z,98336.34
2022-08-02T03:49:02.133Z,98326.22
2022-08-02T03:51:28.788Z,98333.34
2022-08-02T03:53:56.806Z,98326.59
2022-08-02T03:56:23.678Z,98313.53
2022-08-02T03:58:50.452Z,98320.91
2022-08-02T04:01:16.981Z,98331.72
2022-08-02T04:03:43.555Z,98325.13
2022-08-02T04:06:09.984Z,98334.75
2022-08-02T04:08:38.343Z,98340.53
2022-08-02T04:11:24.561Z,98344.97
2022-08-02T04:13:51.894Z,98337.63
2022-08-02T04:16:23.546Z,98348.63
2022-08-02T04:19:00.417Z,98343.28
2022-08-02T04:21:49.955Z,98326.00
2022-08-02T04:24:20.613Z,98351.53
2022-08-02T04:26:52.552Z,98334.66
2022-08-02T04:29:19.849Z,98351.97
2022-08-02T04:31:46.411Z,98351.50
2022-08-02T04:34:16.099Z,98347.84
2022-08-02T04:36:43.418Z,98348.38
2022-08-02T04:39:12.759Z,98351.13
2022-08-02T04:41:44.458Z,98356.44
2022-08-02T04:44:12.285Z,98353.63
2022-08-02T04:46:39.652Z,98362.38
2022-08-02T04:49:06.633Z,98348.50
2022-08-02T04:51:37.717Z,98355.41
2022-08-02T04:54:09.420Z,98343.53
2022-08-02T04:56:40.960Z,98362.84
2022-08-02T04:59:07.845Z,98367.00
2022-08-02T05:01:37.993Z,98368.91
2022-08-02T05:04:05.129Z,98358.44
2022-08-02T05:06:34.974Z,98375.69
2022-08-02T05:09:01.692Z,98378.53
2022-08-02T05:11:35.896Z,98396.91
2022-08-02T05:14:03.740Z,98370.44
2022-08-02T05:16:31.453Z,98388.47
2022-08-02T05:18:59.823Z,98405.28
2022-08-02T05:21:26.235Z,98402.72
2022-08-02T05:23:52.672Z,98427.69
2022-08-02T05:26:22.261Z,98431.34
2022-08-02T05:28:50.471Z,98417.34
2022-08-02T05:31:16.895Z,98424.50
2022-08-02T05:33:43.855Z,98422.19
2022-08-02T05:36:14.090Z,98430.84
2022-08-02T05:38:42.373Z,98445.72
2022-08-02T05:41:15.988Z,98421.38
2022-08-02T05:43:42.578Z,98456.22
2022-08-02T05:46:09.067Z,98458.28
2022-08-02T05:48:35.994Z,98458.22
2022-08-02T05:51:11.043Z,98477.38
2022-08-02T05:53:45.203Z,98491.72
2022-08-02T05:56:31.719Z,98502.41
2022-08-02T05:59:10.528Z,98483.34
2022-08-02T06:01:40.660Z,98488.34
2022-08-02T06:04:09.548Z,98597.16
2022-08-02T06:06:37.588Z,98649.59
2022-08-02T06:09:09.689Z,98684.66
2022-08-02T06:12:02.048Z,98707.41
2022-08-02T06:14:32.892Z,98794.72
2022-08-02T06:17:01.090Z,98822.91
2022-08-02T06:19:31.404Z,98805.91
2022-08-02T06:22:33.202Z,98831.56
2022-08-02T06:25:03.310Z,98829.25
2022-08-02T06:27:30.252Z,98889.84
2022-08-02T06:29:57.858Z,98934.81
2022-08-02T06:32:27.382Z,98937.69
2022-08-02T06:34:54.064Z,98887.84
2022-08-02T06:37:35.671Z,98900.22
2022-08-02T06:40:07.093Z,98935.41
2022-08-02T06:43:01.890Z,98917.75
2022-08-02T06:45:28.362Z,98978.81
2022-08-02T06:47:57.339Z,98984.81
2022-08-02T06:50:23.964Z,98989.63
2022-08-02T06:52:50.368Z,98992.00
2022-08-02T06:55:17.933Z,99031.13
2022-08-02T06:57:44.364Z,99015.38
2022-08-02T07:00:12.792Z,99062.06
2022-08-02T07:02:43.703Z,99058.72
2022-08-02T07:05:10.321Z,99045.28
2022-08-02T07:07:37.199Z,99021.16
2022-08-02T07:10:04.240Z,99060.97
2022-08-02T07:12:32.989Z,99079.88
2022-08-02T07:15:05.619Z,99105.84
2022-08-02T07:17:32.540Z,99074.13
2022-08-02T07:19:59.906Z,99036.13
2022-08-02T07:22:28.051Z,99103.13
2022-08-02T07:24:58.928Z,99110.53
2022-08-02T07:27:26.198Z,99145.34
2022-08-02T07:29:53.019Z,99109.75
2022-08-02T07:32:22.794Z,99078.09
2022-08-02T07:34:50.827Z,99120.09
2022-08-02T07:37:35.955Z,99100.91
2022-08-02T07:40:14.191Z,99097.81
2022-08-02T07:42:45.823Z,99103.81
2022-08-02T07:45:14.047Z,99095.19
2022-08-02T07:47:41.677Z,99114.53
2022-08-02T07:50:10.158Z,99168.53
2022-08-02T07:52:37.361Z,99213.06
2022-08-02T07:55:07.278Z,99183.03
2022-08-02T07:57:34.207Z,99172.88
2022-08-02T08:00:00.713Z,99207.28
2022-08-02T08:02:27.270Z,99188.44
2022-08-02T08:04:54.075Z,99178.34
2022-08-02T08:07:20.574Z,99145.06
2022-08-02T08:09:48.181Z,99220.66
2022-08-02T08:12:16.300Z,99206.38
2022-08-02T08:14:43.814Z,99245.13
2022-08-02T08:17:10.592Z,99228.50
2022-08-02T08:19:51.573Z,99229.66
2022-08-02T08:22:22.580Z,99237.94
2022-08-02T08:24:50.420Z,99240.59
2022-08-02T08:27:18.147Z,99237.31
2022-08-02T08:29:45.338Z,99229.47
2022-08-02T08:32:17.598Z,99254.03
2022-08-02T08:34:47.379Z,99238.34
2022-08-02T08:37:16.512Z,99251.75
2022-08-02T08:39:58.354Z,99241.75
2022-08-02T08:42:30.620Z,99260.34
2022-08-02T08:44:58.860Z,99252.72
2022-08-02T08:47:34.643Z,99245.28
2022-08-02T08:50:25.515Z,99237.94
2022-08-02T08:53:07.237Z,99245.94
2022-08-02T08:55:35.680Z,99244.78
2022-08-02T08:58:04.574Z,99258.16
2022-08-02T09:00:33.448Z,99256.13
2022-08-02T09:03:03.305Z,99254.56
2022-08-02T09:05:29.822Z,99255.34
2022-08-02T09:07:56.197Z,99250.06
2022-08-02T09:10:32.366Z,99267.28
2022-08-02T09:13:37.825Z,99267.19
2022-08-02T09:16:14.566Z,99270.75
2022-08-02T09:18:46.368Z,99266.38
2022-08-02T09:21:15.423Z,99265.22
2022-08-02T09:23:46.971Z,99273.69
2022-08-02T09:26:24.068Z,99281.00
2022-08-02T09:29:01.213Z,99262.50
2022-08-02T09:31:27.961Z,99250.72
2022-08-02T09:34:00.027Z,99251.03
2022-08-02T09:36:28.746Z,99234.53
2022-08-02T09:39:04.922Z,99246.63
2022-08-02T09:41:33.593Z,99249.06
2022-08-02T09:44:04.854Z,99263.72
2022-08-02T09:46:43.716Z,99260.34
2022-08-02T09:49:16.562Z,99255.81
2022-08-02T09:51:46.668Z,99231.06
2022-08-02T09:54:27.000Z,99243.88
2022-08-02T09:56:56.283Z,99242.31
2022-08-02T09:59:27.107Z,99232.78
2022-08-02T10:02:02.509Z,99236.94
2022-08-02T10:04:34.175Z,99232.13
2022-08-02T10:07:04.854Z,99237.22
2022-08-02T10:09:32.426Z,99238.06
2022-08-02T10:11:59.853Z,99225.41
2022-08-02T10:14:26.926Z,99208.06
2022-08-02T10:16:55.167Z,99228.38
2022-08-02T10:20:02.491Z,99234.25
2022-08-02T10:22:15.531Z,99211.09
2022-08-02T10:24:48.036Z,99231.94
2022-08-02T10:27:19.982Z,99214.75
2022-08-02T10:29:54.932Z,99210.69
2022-08-02T10:32:34.954Z,99184.13
2022-08-02T10:35:23.332Z,99200.44
2022-08-02T10:37:56.683Z,99203.38
2022-08-02T10:40:24.252Z,99167.88
2022-08-02T10:42:54.557Z,99210.41
2022-08-02T10:45:22.750Z,99208.75
2022-08-02T10:48:25.213Z,99202.41
2022-08-02T10:50:53.021Z,99193.84
2022-08-02T10:53:34.271Z,99194.59
2022-08-02T10:56:02.798Z,99188.16
2022-08-02T10:58:33.865Z,99188.94
2022-08-02T11:01:07.643Z,99185.38
2022-08-02T11:03:39.398Z,99185.44
2022-08-02T11:06:26.092Z,99195.19
2022-08-02T11:09:31.777Z,99206.72
2022-08-02T11:12:10.844Z,99193.63
2022-08-02T11:14:43.521Z,99170.59
2022-08-02T11:17:14.799Z,99191.78
2022-08-02T11:20:12.185Z,99188.03
2022-08-02T11:22:43.386Z,99181.41
2022-08-02T11:25:21.704Z,99192.75
2022-08-02T11:27:58.829Z,99191.38
2022-08-02T11:30:27.484Z,99181.28
2022-08-02T11:32:58.557Z,99179.59
2022-08-02T11:35:32.803Z,99178.75
2022-08-02T11:38:13.007Z,99171.31
2022-08-02T11:40:39.433Z,99150.19
2022-08-02T11:43:18.553Z,99177.97
2022-08-02T11:45:45.489Z,99165.13
2022-08-02T11:48:12.080Z,99160.19
2022-08-02T11:50:38.970Z,99173.88
2022-08-02T11:53:17.414Z,99173.28
2022-08-02T11:55:43.916Z,99151.81
2022-08-02T11:58:12.867Z,99160.00
2022-08-02T12:00:39.952Z,99152.97
2022-08-02T12:03:07.148Z,99129.31
2022-08-02T12:06:04.491Z,99133.13
2022-08-02T12:08:25.130Z,99160.03
2022-08-02T12:10:52.211Z,99157.56
2022-08-02T12:13:18.868Z,99143.19
2022-08-02T12:15:46.782Z,99154.88
2022-08-02T12:18:41.380Z,99160.22
2022-08-02T12:21:26.812Z,99151.47
2022-08-02T12:24:01.062Z,99149.81
2022-08-02T12:26:29.224Z,99130.66
2022-08-02T12:29:01.461Z,99154.47
2022-08-02T12:31:57.609Z,99155.97
2022-08-02T12:34:31.268Z,99132.94
2022-08-02T12:37:02.184Z,99157.66
2022-08-02T12:39:43.104Z,99148.28
2022-08-02T12:42:13.536Z,99148.97
2022-08-02T12:44:52.992Z,99158.66
2022-08-02T12:47:21.794Z,99151.69
2022-08-02T12:50:11.887Z,99143.38
2022-08-02T12:52:38.783Z,99152.22
2022-08-02T12:55:16.738Z,99147.25
2022-08-02T12:57:54.377Z,99154.06
2022-08-02T13:00:32.322Z,99149.75
2022-08-02T13:02:59.599Z,99158.41
2022-08-02T13:05:29.022Z,99144.63
2022-08-02T13:08:16.601Z,99130.47
2022-08-02T13:10:43.918Z,99120.16
2022-08-02T13:13:12.817Z,99137.56
2022-08-02T13:15:49.088Z,99142.13
2022-08-02T13:18:18.361Z,99125.38
2022-08-02T13:20:46.364Z,99139.72
2022-08-02T13:23:21.914Z,99137.19
2022-08-02T13:25:52.400Z,99137.72
2022-08-02T13:28:20.228Z,99135.28
2022-08-02T13:30:47.728Z,99136.50
2022-08-02T13:33:14.676Z,99125.03
2022-08-02T13:35:42.792Z,99114.56
2022-08-02T13:38:09.854Z,99121.31
2022-08-02T13:41:06.414Z,99119.91
2022-08-02T13:43:54.019Z,99113.38
2022-08-02T13:46:28.885Z,99109.31
2022-08-02T13:48:56.210Z,99127.91
2022-08-02T13:51:22.673Z,99108.78
2022-08-02T13:53:49.423Z,99120.72
2022-08-02T13:56:16.885Z,99119.66
2022-08-02T13:58:45.729Z,99115.66
2022-08-02T14:01:12.908Z,99111.97
2022-08-02T14:04:07.687Z,99117.88
2022-08-02T14:06:27.341Z,99115.72
2022-08-02T14:08:54.086Z,99103.81
2022-08-02T14:11:20.719Z,99107.19
2022-08-02T14:13:47.211Z,99102.00
2022-08-02T14:16:13.705Z,99107.47
2022-08-02T14:18:40.193Z,99103.56
2022-08-02T14:21:06.597Z,99103.25
2022-08-02T14:23:49.746Z,99118.88
2022-08-02T14:26:27.246Z,99106.34
2022-08-02T14:28:54.584Z,99110.91
2022-08-02T14:31:21.022Z,99101.66
2022-08-02T14:33:47.470Z,99098.75
2022-08-02T14:36:14.217Z,99093.19
2022-08-02T14:38:40.745Z,99107.63
2022-08-02T14:41:07.193Z,99092.16
2022-08-02T14:43:52.041Z,99095.41
2022-08-02T14:46:18.655Z,99103.63
2022-08-02T14:48:49.955Z,99095.81
2022-08-02T14:51:16.906Z,99100.88
2022-08-02T14:53:49.200Z,99088.19
2022-08-02T14:56:16.504Z,99046.66
2022-08-02T14:58:43.161Z,99075.03
2022-08-02T15:01:09.939Z,99078.84
2022-08-02T15:03:43.583Z,99095.19
2022-08-02T15:06:10.274Z,99087.06
2022-08-02T15:08:36.833Z,99075.97
2022-08-02T15:11:03.584Z,99087.00
2022-08-02T15:13:30.272Z,99077.69
2022-08-02T15:15:56.727Z,99062.31
2022-08-02T15:18:23.258Z,99070.47
2022-08-02T15:20:57.317Z,99085.50
2022-08-02T15:23:37.196Z,99081.19
2022-08-02T15:26:04.788Z,99081.41
2022-08-02T15:28:31.394Z,99079.72
2022-08-02T15:31:00.973Z,99085.16
2022-08-02T15:33:27.390Z,99087.75
2022-08-02T15:35:53.821Z,99055.03
2022-08-02T15:38:20.254Z,99071.91
2022-08-02T15:40:49.636Z,99047.94
2022-08-02T15:43:17.920Z,99074.69
2022-08-02T15:45:44.521Z,99073.72
2022-08-02T15:48:11.587Z,99076.09
2022-08-02T15:50:39.031Z,99073.31
2022-08-02T15:53:05.441Z,99069.28
2022-08-02T15:55:40.067Z,99065.06
2022-08-02T15:58:18.582Z,99024.81
2022-08-02T16:00:49.918Z,99069.09
2022-08-02T16:03:16.347Z,99063.84
2022-08-02T16:05:42.835Z,99049.34
2022-08-02T16:08:09.241Z,99052.13
2022-08-02T16:10:35.945Z,99059.25
2022-08-02T16:13:21.134Z,99041.00
2022-08-02T16:15:47.555Z,99039.72
2022-08-02T16:18:13.942Z,99032.72
2022-08-02T16:20:40.421Z,99041.09
2022-08-02T16:23:08.704Z,99027.72
2022-08-02T16:25:41.754Z,99048.56
2022-08-02T16:28:08.802Z,99049.06
2022-08-02T16:30:35.313Z,99049.91
2022-08-02T16:33:02.167Z,99033.06
2022-08-02T16:35:29.087Z,99041.69
2022-08-02T16:37:55.681Z,99033.81
2022-08-02T16:40:22.368Z,99033.66
2022-08-02T16:42:51.255Z,99036.63
2022-08-02T16:45:22.613Z,99040.13
2022-08-02T16:47:55.162Z,99024.22
2022-08-02T16:50:27.105Z,99037.25
2022-08-02T16:52:58.113Z,99037.81
2022-08-02T16:55:25.738Z,99030.94
2022-08-02T16:57:52.800Z,99033.91
2022-08-02T17:00:23.944Z,99033.72
2022-08-02T17:02:50.730Z,99039.00
2022-08-02T17:05:17.235Z,99020.81
2022-08-02T17:08:06.012Z,99033.47
2022-08-02T17:10:31.549Z,99039.31
2022-08-02T17:12:58.758Z,99036.09
2022-08-02T17:16:01.219Z,99035.44
2022-08-02T17:18:27.554Z,99033.06
2022-08-02T17:20:54.475Z,99023.50
2022-08-02T17:23:20.947Z,99020.53
2022-08-02T17:25:52.453Z,99042.81
2022-08-02T17:28:19.890Z,99039.69
2022-08-02T17:30:46.461Z,99040.88
2022-08-02T17:33:13.235Z,99028.03
2022-08-02T17:35:51.896Z,99033.47
2022-08-02T17:38:26.193Z,99034.69
2022-08-02T17:40:56.726Z,99036.13
2022-08-02T17:43:29.005Z,99039.50
2022-08-02T17:46:00.815Z,99032.47
2022-08-02T17:48:55.745Z,99035.69
2022-08-02T17:52:14.776Z,99044.66
2022-08-02T17:54:10.478Z,99020.03
2022-08-02T17:56:37.018Z,99045.47
2022-08-02T17:59:20.120Z,99048.59
2022-08-02T18:01:53.103Z,99045.88
2022-08-02T18:04:27.616Z,99005.09
2022-08-02T18:07:04.545Z,99038.47
2022-08-02T18:09:41.486Z,99036.13
2022-08-02T18:12:11.351Z,99041.34
2022-08-02T18:14:46.141Z,99035.75
2022-08-02T18:17:15.460Z,99037.94
2022-08-02T18:19:55.522Z,99041.00
2022-08-02T18:22:26.980Z,99039.44
2022-08-02T18:24:54.073Z,99034.94
2022-08-02T18:27:21.217Z,99022.00
2022-08-02T18:29:47.634Z,99035.88
2022-08-02T18:34:00.625Z,99025.06
2022-08-02T18:35:13.474Z,99029.72
2022-08-02T18:37:43.884Z,99021.78
2022-08-02T18:40:14.862Z,99015.63
2022-08-02T18:42:41.602Z,99010.44
2022-08-02T18:45:08.767Z,98983.22
2022-08-02T18:47:51.085Z,98991.50
2022-08-02T18:50:19.867Z,98984.06
2022-08-02T18:52:47.994Z,98982.41
2022-08-02T18:55:17.620Z,98978.97
2022-08-02T18:58:18.723Z,98974.25
2022-08-02T19:00:51.491Z,98974.75
2022-08-02T19:03:19.268Z,98987.44
2022-08-02T19:05:51.657Z,98983.78
2022-08-02T19:08:20.627Z,98971.97
2022-08-02T19:10:53.183Z,98971.78
2022-08-02T19:13:22.546Z,98946.78
2022-08-02T19:15:49.229Z,98937.09
2022-08-02T19:18:15.756Z,98905.56
2022-08-02T19:20:48.187Z,98886.78
2022-08-02T19:23:17.047Z,98876.34
2022-08-02T19:25:50.071Z,98874.69
2022-08-02T19:28:26.164Z,98887.13
2022-08-02T19:30:56.744Z,98874.38
2022-08-02T19:33:54.331Z,98874.38
2022-08-02T19:38:59.274Z,98808.69
2022-08-02T19:41:25.832Z,98848.41
2022-08-02T19:44:23.314Z,98841.00
2022-08-02T19:46:38.819Z,98838.13
2022-08-02T19:49:16.706Z,98838.56
2022-08-02T19:51:55.816Z,98846.84
2022-08-02T19:54:35.866Z,98841.88
2022-08-02T19:57:10.743Z,98842.75
2022-08-02T19:59:44.616Z,98831.59
2022-08-02T20:02:11.618Z,98834.50
2022-08-02T20:04:38.356Z,98854.13
2022-08-02T20:07:04.792Z,98839.66
2022-08-02T20:09:33.511Z,98844.00
2022-08-02T20:12:14.174Z,98827.50
2022-08-02T20:14:50.996Z,98840.69
2022-08-02T20:17:20.683Z,98826.63
2022-08-02T20:19:47.435Z,98827.06
2022-08-02T20:22:16.323Z,98818.13
2022-08-02T20:24:43.151Z,98810.06
2022-08-02T20:27:17.373Z,98810.88
2022-08-02T20:29:51.350Z,98795.59
2022-08-02T20:32:24.503Z,98796.81
2022-08-02T20:34:52.670Z,98800.53
2022-08-02T20:38:00.131Z,98795.59
2022-08-02T20:40:06.892Z,98793.91
2022-08-02T20:42:34.560Z,98799.06
2022-08-02T20:45:04.489Z,98803.19
2022-08-02T20:47:39.077Z,98804.00
2022-08-02T20:50:31.396Z,98811.06
2022-08-02T20:53:02.587Z,98801.50
2022-08-02T20:55:31.674Z,98800.44
2022-08-02T20:58:01.322Z,98793.34
2022-08-02T21:00:28.835Z,98804.91
2022-08-02T21:02:55.468Z,98795.16
2022-08-02T21:05:43.609Z,98803.66
2022-08-02T21:08:14.198Z,98790.44
2022-08-02T21:10:50.286Z,98793.69
2022-08-02T21:13:23.161Z,98796.59
2022-08-02T21:15:52.141Z,98787.69
2022-08-02T21:18:20.217Z,98791.19
2022-08-02T21:20:55.867Z,98772.56
2022-08-02T21:23:23.342Z,98768.38
2022-08-02T21:25:56.930Z,98760.09
2022-08-02T21:28:24.809Z,98743.94
2022-08-02T21:31:10.922Z,98774.06
2022-08-02T21:33:56.922Z,98769.91
2022-08-02T21:36:31.801Z,98762.44
2022-08-02T21:38:59.649Z,98746.69
2022-08-02T21:41:40.055Z,98740.66
2022-08-02T21:44:13.690Z,98752.44
2022-08-02T21:46:44.302Z,98740.88
2022-08-02T21:49:11.486Z,98763.41
2022-08-02T21:51:39.108Z,98746.22
2022-08-02T21:54:18.148Z,98755.63
2022-08-02T21:56:48.343Z,98768.72
2022-08-02T21:59:19.152Z,98768.78
2022-08-02T22:01:54.061Z,98767.06
2022-08-02T22:04:22.082Z,98762.09
2022-08-02T22:06:49.080Z,98766.16
2022-08-02T22:09:17.283Z,98760.81
2022-08-02T22:11:44.920Z,98768.53
2022-08-02T22:14:12.700Z,98760.31
2022-08-02T22:16:39.479Z,98749.75
2022-08-02T22:19:06.567Z,98752.13
2022-08-02T22:21:33.631Z,98770.28
2022-08-02T22:24:29.743Z,98754.72
2022-08-02T22:26:57.786Z,98752.13
2022-08-02T22:29:24.423Z,98753.31
2022-08-02T22:31:53.074Z,98750.81
2022-08-02T22:34:36.815Z,98741.44
2022-08-02T22:37:07.464Z,98740.06
2022-08-02T22:39:34.463Z,98749.94
2022-08-02T22:42:05.769Z,98752.53
2022-08-02T22:44:33.836Z,98734.03
2022-08-02T22:47:13.822Z,98732.13
2022-08-02T22:49:44.648Z,98738.06
2022-08-02T22:52:20.120Z,98738.34
2022-08-02T22:54:47.380Z,98733.34
2022-08-02T22:57:14.001Z,98742.47
2022-08-02T22:59:05.897Z,98860.97
2022-08-02T22:59:40.952Z,98724.34
2022-08-02T23:02:08.654Z,98708.16
2022-08-02T23:04:36.490Z,98754.84
2022-08-02T23:07:02.911Z,98753.47
2022-08-02T23:09:29.378Z,98768.38
2022-08-02T23:11:55.864Z,98758.81
2022-08-02T23:14:22.356Z,98748.41
2022-08-02T23:17:08.454Z,98720.25
2022-08-02T23:19:53.063Z,98740.03
2022-08-02T23:22:29.505Z,98736.06
2022-08-02T23:25:00.506Z,98715.22
2022-08-02T23:27:27.647Z,98716.47
2022-08-02T23:29:55.765Z,98716.09
2022-08-02T23:32:22.936Z,98715.88
2022-08-02T23:34:52.798Z,98716.53
2022-08-02T23:37:19.179Z,98706.78
2022-08-02T23:39:46.102Z,98711.91
2022-08-02T23:42:12.498Z,98718.81
2022-08-02T23:44:39.516Z,98716.06
2022-08-02T23:47:06.243Z,98706.03
2022-08-02T23:49:32.994Z,98707.31
2022-08-02T23:52:01.836Z,98705.84
2022-08-02T23:54:29.370Z,98694.88
2022-08-02T23:56:56.358Z,98691.38
2022-08-02T23:59:22.916Z,98687.97
